Time;durP1;ratioP1;P1;durP2;ratioP2;P2;SDS_P1;SDS_P2;PMS_P1;PMS_P2;Temp;Humidity;BMP_temperature;BMP_pressure;BME280_temperature;BME280_humidity;BME280_pressure;Samples;Min_cycle;Max_cycle;Signal;HPM_P1;HPM_P2
2023/08/11 00:03:39;;;;;;;11.30;7.55;;;;;;;;;;8269668;28;20058;-90
2023/08/11 00:07:42;;;;;;;15.30;8.98;;;;;;;;;;8271760;28;20054;-88
2023/08/11 00:11:47;;;;;;;12.82;8.38;;;;;;;;;;8267117;28;20112;-88
2023/08/11 00:15:55;;;;;;;15.55;9.13;;;;;;;;;;8280884;28;20132;-88
2023/08/11 00:19:58;;;;;;;14.32;8.35;;;;;;;;;;8278549;28;20058;-89
2023/08/11 00:24:02;;;;;;;13.02;8.15;;;;;;;;;;8280330;28;20054;-87
2023/08/11 00:28:06;;;;;;;22.02;10.63;;;;;;;;;;8287285;28;20053;-88
2023/08/11 00:32:13;;;;;;;17.27;10.40;;;;;;;;;;8272975;28;20058;-88
2023/08/11 00:36:17;;;;;;;16.92;9.63;;;;;;;;;;8273319;28;20089;-87
2023/08/11 00:40:21;;;;;;;15.23;8.02;;;;;;;;;;8287557;28;20053;-87
2023/08/11 00:44:27;;;;;;;14.45;7.95;;;;;;;;;;8288214;28;20072;-88
2023/08/11 00:48:32;;;;;;;11.30;7.88;;;;;;;;;;8276233;28;20137;-88
2023/08/11 00:52:36;;;;;;;10.88;6.68;;;;;;;;;;8288369;28;20057;-89
2023/08/11 00:56:44;;;;;;;13.98;8.05;;;;;;;;;;8288766;28;20452;-89
2023/08/11 01:00:50;;;;;;;13.18;8.07;;;;;;;;;;8283698;28;20085;-88
2023/08/11 01:04:58;;;;;;;14.18;8.00;;;;;;;;;;8261521;28;20085;-88
2023/08/11 01:09:15;;;;;;;11.43;6.55;;;;;;;;;;8287437;28;20046;-86
2023/08/11 01:13:41;;;;;;;12.50;7.82;;;;;;;;;;8311243;28;20138;-90
2023/08/11 01:17:52;;;;;;;13.75;8.07;;;;;;;;;;8251151;28;20041;-88
2023/08/11 01:22:02;;;;;;;14.15;7.97;;;;;;;;;;8290836;28;20058;-88
2023/08/11 01:26:12;;;;;;;14.90;8.40;;;;;;;;;;8276890;28;20050;-89
2023/08/11 01:30:34;;;;;;;18.05;8.77;;;;;;;;;;8291469;28;20081;-89
2023/08/11 01:34:54;;;;;;;15.88;8.77;;;;;;;;;;8308318;28;20038;-88
2023/08/11 01:39:13;;;;;;;15.77;8.18;;;;;;;;;;8263722;28;20532;-89
2023/08/11 01:43:26;;;;;;;16.30;7.63;;;;;;;;;;8286375;28;20054;-89
2023/08/11 01:47:32;;;;;;;10.50;6.32;;;;;;;;;;8289674;28;20061;-89
2023/08/11 01:51:45;;;;;;;10.20;6.40;;;;;;;;;;8283177;28;20046;-89
2023/08/11 01:56:27;;;;;;;12.07;7.03;;;;;;;;;;8303355;28;20124;-89
2023/08/11 02:00:47;;;;;;;13.75;7.82;;;;;;;;;;8279801;28;20054;-88
2023/08/11 02:04:51;;;;;;;9.27;6.07;;;;;;;;;;8285826;28;20053;-89
2023/08/11 02:09:04;;;;;;;10.02;5.68;;;;;;;;;;8280665;28;20093;-89
2023/08/11 02:13:19;;;;;;;9.55;5.70;;;;;;;;;;8282036;28;20053;-88
2023/08/11 02:17:26;;;;;;;11.38;6.45;;;;;;;;;;8298168;28;20076;-89
2023/08/11 02:21:30;;;;;;;9.63;6.07;;;;;;;;;;8291649;28;20453;-89
2023/08/11 02:25:35;;;;;;;12.02;5.97;;;;;;;;;;8289023;28;20541;-89
2023/08/11 02:29:38;;;;;;;11.82;6.60;;;;;;;;;;8281378;28;20069;-88
2023/08/11 02:33:45;;;;;;;12.55;5.78;;;;;;;;;;8294856;28;20046;-88
2023/08/11 02:37:49;;;;;;;10.70;5.78;;;;;;;;;;8304721;28;20069;-89
2023/08/11 02:41:52;;;;;;;12.75;6.53;;;;;;;;;;8334247;28;20041;-89
2023/08/11 02:45:57;;;;;;;12.23;6.30;;;;;;;;;;8332669;28;20041;-88
2023/08/11 02:50:05;;;;;;;11.30;6.20;;;;;;;;;;8330250;28;20057;-89
2023/08/11 02:54:08;;;;;;;8.90;5.70;;;;;;;;;;8327599;28;20061;-90
2023/08/11 02:58:11;;;;;;;9.80;6.63;;;;;;;;;;8301630;28;20058;-89
2023/08/11 03:02:16;;;;;;;9.88;5.78;;;;;;;;;;8378274;23;20054;-89
2023/08/11 03:06:21;;;;;;;9.55;6.38;;;;;;;;;;8497846;23;20521;-89
2023/08/11 03:10:24;;;;;;;10.98;6.65;;;;;;;;;;8287434;28;20102;-89
2023/08/11 03:14:27;;;;;;;9.38;5.88;;;;;;;;;;8268687;28;20066;-90
2023/08/11 03:19:40;;;;;;;9.95;6.10;;;;;;;;;;8201898;28;20055;-89
2023/08/11 03:23:48;;;;;;;12.18;7.22;;;;;;;;;;8272139;28;20568;-89
2023/08/11 03:27:51;;;;;;;13.07;6.30;;;;;;;;;;8283794;28;20074;-88
2023/08/11 03:31:55;;;;;;;12.45;6.32;;;;;;;;;;8283861;28;20053;-88
2023/08/11 03:35:58;;;;;;;9.40;5.63;;;;;;;;;;8276129;28;20414;-87
2023/08/11 03:40:06;;;;;;;12.95;5.65;;;;;;;;;;8282317;28;20054;-89
2023/08/11 03:44:09;;;;;;;11.63;6.47;;;;;;;;;;8283327;28;20093;-89
2023/08/11 03:48:15;;;;;;;10.13;6.43;;;;;;;;;;8299383;28;20046;-89
2023/08/11 03:52:18;;;;;;;11.70;6.28;;;;;;;;;;8281274;28;20124;-90
2023/08/11 03:56:31;;;;;;;9.30;6.72;;;;;;;;;;8284861;28;20058;-90
2023/08/11 04:00:40;;;;;;;10.52;6.95;;;;;;;;;;8293810;28;20084;-88
2023/08/11 04:04:43;;;;;;;10.70;7.03;;;;;;;;;;8284121;28;20493;-89
2023/08/11 04:08:50;;;;;;;12.07;6.10;;;;;;;;;;8294263;28;20050;-88
2023/08/11 04:12:57;;;;;;;10.25;6.30;;;;;;;;;;8290972;28;20100;-88
2023/08/11 04:17:01;;;;;;;9.40;5.72;;;;;;;;;;8278021;28;20058;-89
2023/08/11 04:21:05;;;;;;;9.07;6.50;;;;;;;;;;8279243;28;20057;-88
2023/08/11 04:25:10;;;;;;;9.13;6.22;;;;;;;;;;8290659;28;20053;-89
2023/08/11 04:29:19;;;;;;;8.85;6.30;;;;;;;;;;8283330;28;20054;-88
2023/08/11 04:33:23;;;;;;;11.27;7.07;;;;;;;;;;8289051;28;20111;-88
2023/08/11 04:37:27;;;;;;;8.65;6.40;;;;;;;;;;8304942;28;20076;-89
2023/08/11 04:41:30;;;;;;;9.13;5.55;;;;;;;;;;8288747;28;20133;-89
2023/08/11 04:45:37;;;;;;;9.75;5.63;;;;;;;;;;8287939;28;20073;-89
2023/08/11 04:49:41;;;;;;;11.25;6.38;;;;;;;;;;8274804;28;20054;-89
2023/08/11 04:53:45;;;;;;;10.13;5.80;;;;;;;;;;8279922;28;20624;-88
2023/08/11 04:57:48;;;;;;;8.55;5.50;;;;;;;;;;8280212;28;20069;-88
2023/08/11 05:01:55;;;;;;;8.40;5.57;;;;;;;;;;8285659;28;20053;-89
2023/08/11 05:06:01;;;;;;;6.55;4.40;;;;;;;;;;8286621;28;20045;-89
2023/08/11 05:10:06;;;;;;;9.98;4.95;;;;;;;;;;8277531;28;20057;-90
2023/08/11 05:14:09;;;;;;;7.88;3.85;;;;;;;;;;8284524;28;20505;-90
2023/08/11 05:18:14;;;;;;;8.77;4.00;;;;;;;;;;8283096;28;20057;-89
2023/08/11 05:22:21;;;;;;;5.97;3.85;;;;;;;;;;8271653;28;20475;-90
2023/08/11 05:26:24;;;;;;;6.82;3.65;;;;;;;;;;8285879;28;20062;-89
2023/08/11 05:30:28;;;;;;;7.88;3.95;;;;;;;;;;8275416;28;20104;-90
2023/08/11 05:34:35;;;;;;;5.10;3.40;;;;;;;;;;8282792;28;20446;-89
2023/08/11 05:38:38;;;;;;;6.97;3.50;;;;;;;;;;8272895;28;20442;-89
2023/08/11 05:42:42;;;;;;;6.97;3.90;;;;;;;;;;8284582;28;20088;-89
2023/08/11 05:46:46;;;;;;;9.52;3.92;;;;;;;;;;8282349;28;20050;-88
2023/08/11 05:50:55;;;;;;;9.82;4.38;;;;;;;;;;8269505;28;20471;-87
2023/08/11 05:54:58;;;;;;;5.05;3.25;;;;;;;;;;8247041;28;20056;-90
2023/08/11 05:59:02;;;;;;;4.40;2.83;;;;;;;;;;8323913;23;20089;-94
2023/08/11 06:09:30;;;;;;;6.13;2.90;;;;;;;;;;8094002;29;20060;-91
2023/08/11 06:13:35;;;;;;;4.65;2.63;;;;;;;;;;8099908;29;20561;-89
2023/08/11 06:17:39;;;;;;;4.35;2.50;;;;;;;;;;8125714;29;20132;-91
2023/08/11 06:21:45;;;;;;;4.47;2.70;;;;;;;;;;8086459;29;20056;-92
2023/08/11 06:30:18;;;;;;;4.07;2.50;;;;;;;;;;8130449;29;20072;-87
2023/08/11 06:34:58;;;;;;;4.68;2.50;;;;;;;;;;8108695;29;20083;-87
2023/08/11 06:39:10;;;;;;;4.78;2.17;;;;;;;;;;8173002;28;20080;-88
2023/08/11 06:43:16;;;;;;;4.63;2.28;;;;;;;;;;8249901;28;20479;-86
2023/08/11 06:47:20;;;;;;;4.45;2.50;;;;;;;;;;8256368;28;20446;-90
2023/08/11 06:51:23;;;;;;;3.53;2.30;;;;;;;;;;8243250;28;20058;-89
2023/08/11 06:55:27;;;;;;;5.78;2.20;;;;;;;;;;8235707;28;20078;-92
2023/08/11 06:59:30;;;;;;;3.70;2.20;;;;;;;;;;8213088;28;20055;-93
2023/08/11 07:19:30;;;;;;;3.28;2.08;;;;;;;;;;8102922;29;20479;-91
2023/08/11 07:23:34;;;;;;;4.40;2.30;;;;;;;;;;8113623;29;20064;-93
2023/08/11 07:27:36;;;;;;;3.22;2.10;;;;;;;;;;8102930;29;20048;-89
2023/08/11 07:31:40;;;;;;;5.70;2.10;;;;;;;;;;8103403;29;20056;-90
2023/08/11 07:35:45;;;;;;;3.30;2.13;;;;;;;;;;8103690;29;20049;-91
2023/08/11 07:39:48;;;;;;;4.03;2.03;;;;;;;;;;8290205;28;20141;-92
2023/08/11 07:43:51;;;;;;;5.15;2.40;;;;;;;;;;8295761;28;20049;-91
2023/08/11 07:47:54;;;;;;;4.25;2.17;;;;;;;;;;8295933;28;20053;-92
2023/08/11 07:51:58;;;;;;;4.60;2.42;;;;;;;;;;8297083;28;20078;-92
2023/08/11 07:56:07;;;;;;;3.72;1.98;;;;;;;;;;8295418;28;20410;-94
2023/08/11 08:00:16;;;;;;;3.88;2.45;;;;;;;;;;8288147;28;20078;-91
2023/08/11 08:04:19;;;;;;;4.82;1.90;;;;;;;;;;8296392;28;20108;-91
2023/08/11 08:08:23;;;;;;;4.05;1.92;;;;;;;;;;8296417;28;20045;-87
2023/08/11 08:12:27;;;;;;;4.05;2.08;;;;;;;;;;8268692;28;20053;-90
2023/08/11 08:16:29;;;;;;;5.32;1.88;;;;;;;;;;8276723;28;20133;-90
2023/08/11 08:20:32;;;;;;;4.82;1.95;;;;;;;;;;8296140;28;20053;-89
2023/08/11 08:24:37;;;;;;;5.63;1.80;;;;;;;;;;8287442;28;20043;-89
2023/08/11 08:28:40;;;;;;;3.92;1.80;;;;;;;;;;8294571;28;20129;-88
2023/08/11 08:32:43;;;;;;;3.13;1.70;;;;;;;;;;8296618;28;20126;-89
2023/08/11 08:36:46;;;;;;;5.45;1.60;;;;;;;;;;8294408;28;20096;-90
2023/08/11 08:40:52;;;;;;;6.47;1.83;;;;;;;;;;8290685;28;20109;-89
2023/08/11 08:44:55;;;;;;;2.50;1.63;;;;;;;;;;8295434;28;20469;-88
2023/08/11 08:49:08;;;;;;;4.93;1.88;;;;;;;;;;8272120;28;20058;-90
2023/08/11 08:53:12;;;;;;;2.95;1.60;;;;;;;;;;8301491;28;20456;-88
2023/08/11 08:57:20;;;;;;;3.90;2.10;;;;;;;;;;8294309;28;20134;-88
2023/08/11 09:01:23;;;;;;;3.53;1.50;;;;;;;;;;8290538;28;20132;-89
2023/08/11 09:05:26;;;;;;;3.63;1.60;;;;;;;;;;8282407;28;20042;-90
2023/08/11 09:09:30;;;;;;;5.63;1.90;;;;;;;;;;8301280;28;20045;-88
2023/08/11 09:13:36;;;;;;;3.72;1.55;;;;;;;;;;8274454;28;20045;-90
2023/08/11 09:17:40;;;;;;;3.55;1.67;;;;;;;;;;8300109;28;20038;-89
2023/08/11 09:21:44;;;;;;;3.13;1.65;;;;;;;;;;8285352;28;20057;-90
2023/08/11 09:25:47;;;;;;;3.13;1.50;;;;;;;;;;8280888;28;20100;-89
2023/08/11 09:29:52;;;;;;;5.82;1.83;;;;;;;;;;8282580;28;20486;-89
2023/08/11 09:33:54;;;;;;;3.40;1.50;;;;;;;;;;8305695;28;20069;-88
2023/08/11 09:37:58;;;;;;;5.32;1.42;;;;;;;;;;8300564;28;20073;-89
2023/08/11 09:42:01;;;;;;;5.97;1.80;;;;;;;;;;8300311;28;20081;-87
2023/08/11 09:46:06;;;;;;;4.60;1.50;;;;;;;;;;8301328;28;20053;-88
2023/08/11 09:50:09;;;;;;;2.40;1.60;;;;;;;;;;8284390;28;20058;-88
2023/08/11 09:54:13;;;;;;;1.55;1.45;;;;;;;;;;8299923;28;20470;-87
2023/08/11 09:58:18;;;;;;;4.00;1.50;;;;;;;;;;8284096;28;20093;-87
2023/08/11 10:02:27;;;;;;;4.15;1.75;;;;;;;;;;8300361;28;20605;-88
2023/08/11 10:06:32;;;;;;;4.53;2.00;;;;;;;;;;8299582;28;20050;-88
2023/08/11 10:10:38;;;;;;;4.68;1.73;;;;;;;;;;8297875;28;20406;-87
2023/08/11 10:14:42;;;;;;;3.45;2.25;;;;;;;;;;8299577;28;20037;-86
2023/08/11 10:18:47;;;;;;;4.90;1.90;;;;;;;;;;8269189;28;20061;-87
2023/08/11 10:22:50;;;;;;;3.35;1.83;;;;;;;;;;8298969;28;20077;-88
2023/08/11 10:26:54;;;;;;;2.90;1.80;;;;;;;;;;8276526;28;20038;-88
2023/08/11 10:30:58;;;;;;;2.28;1.70;;;;;;;;;;8293808;28;20049;-87
2023/08/11 10:35:03;;;;;;;3.15;1.77;;;;;;;;;;8289280;28;20104;-89
2023/08/11 10:39:08;;;;;;;3.72;2.05;;;;;;;;;;8292601;28;20057;-89
2023/08/11 10:43:11;;;;;;;2.22;1.70;;;;;;;;;;8294391;28;20046;-88
2023/08/11 10:47:18;;;;;;;2.85;1.75;;;;;;;;;;8266552;28;20077;-88
2023/08/11 10:51:38;;;;;;;3.50;1.70;;;;;;;;;;8285874;28;20128;-88
2023/08/11 10:55:42;;;;;;;2.47;1.70;;;;;;;;;;8271408;28;20061;-88
2023/08/11 10:59:45;;;;;;;4.80;1.80;;;;;;;;;;8268397;28;20081;-89
2023/08/11 11:03:48;;;;;;;3.78;1.85;;;;;;;;;;8270858;28;20059;-89
2023/08/11 11:07:56;;;;;;;4.88;2.05;;;;;;;;;;8277660;28;20066;-89
2023/08/11 11:12:00;;;;;;;2.85;1.70;;;;;;;;;;8273973;28;20100;-90
2023/08/11 11:16:03;;;;;;;4.05;2.10;;;;;;;;;;8268527;28;20061;-90
2023/08/11 11:20:08;;;;;;;4.88;2.03;;;;;;;;;;8274366;28;20045;-89
2023/08/11 11:24:18;;;;;;;4.22;1.90;;;;;;;;;;8262651;28;20054;-88
2023/08/11 11:28:22;;;;;;;4.07;2.00;;;;;;;;;;8273907;28;20104;-89
2023/08/11 11:32:24;;;;;;;2.95;1.90;;;;;;;;;;8261718;28;20130;-88
2023/08/11 11:36:28;;;;;;;7.20;4.07;;;;;;;;;;8265028;28;20450;-90
2023/08/11 11:40:36;;;;;;;4.18;1.70;;;;;;;;;;8266373;28;20497;-88
2023/08/11 11:44:43;;;;;;;4.75;1.77;;;;;;;;;;8270603;28;20061;-88
2023/08/11 11:48:46;;;;;;;4.53;2.08;;;;;;;;;;8274262;28;20058;-90
2023/08/11 12:08:44;;;;;;;5.10;1.80;;;;;;;;;;8161893;29;20051;-87
2023/08/11 12:12:48;;;;;;;3.95;2.10;;;;;;;;;;8274013;28;20116;-87
2023/08/11 12:16:54;;;;;;;4.25;1.90;;;;;;;;;;8286709;28;20433;-90
2023/08/11 12:21:01;;;;;;;4.38;2.03;;;;;;;;;;8287832;28;20457;-90
2023/08/11 12:25:10;;;;;;;3.33;2.10;;;;;;;;;;8301818;28;20084;-88
2023/08/11 12:29:14;;;;;;;3.90;2.10;;;;;;;;;;8298786;28;20054;-91
2023/08/11 12:33:26;;;;;;;3.88;1.90;;;;;;;;;;8272598;28;20055;-90
2023/08/11 12:37:35;;;;;;;4.28;2.10;;;;;;;;;;8257554;28;20153;-89
2023/08/11 12:41:42;;;;;;;4.00;2.00;;;;;;;;;;8274939;28;20054;-88
2023/08/11 12:45:46;;;;;;;3.47;1.80;;;;;;;;;;8284971;28;20129;-88
2023/08/11 12:49:50;;;;;;;3.40;1.90;;;;;;;;;;8265379;28;20547;-88
2023/08/11 13:21:39;;;;;;;5.57;1.90;;;;;;;;;;8310672;28;20053;-90
2023/08/11 13:25:43;;;;;;;4.88;2.13;;;;;;;;;;8304914;28;20046;-91
2023/08/11 13:29:47;;;;;;;3.10;2.10;;;;;;;;;;8297858;28;20058;-92
2023/08/11 13:33:51;;;;;;;5.22;2.17;;;;;;;;;;8297325;28;20049;-92
2023/08/11 13:37:59;;;;;;;2.70;1.83;;;;;;;;;;8314989;28;20100;-90
2023/08/11 13:42:02;;;;;;;4.60;2.10;;;;;;;;;;8311386;28;20405;-87
2023/08/11 13:46:09;;;;;;;3.63;1.92;;;;;;;;;;8308214;28;20077;-88
2023/08/11 13:50:15;;;;;;;3.40;1.80;;;;;;;;;;8329604;28;20121;-86
2023/08/11 13:54:22;;;;;;;3.40;1.63;;;;;;;;;;8332490;28;20034;-88
2023/08/11 13:58:27;;;;;;;3.53;1.95;;;;;;;;;;8305236;28;20111;-89
2023/08/11 14:02:30;;;;;;;7.20;2.10;;;;;;;;;;8317959;28;20050;-88
2023/08/11 14:06:33;;;;;;;3.28;1.88;;;;;;;;;;8260945;28;20058;-88
2023/08/11 14:10:38;;;;;;;4.07;2.25;;;;;;;;;;8260797;28;20566;-89
2023/08/11 14:14:40;;;;;;;5.80;2.45;;;;;;;;;;8239027;28;20735;-87
2023/08/11 14:18:44;;;;;;;5.63;2.38;;;;;;;;;;8265833;28;20038;-89
2023/08/11 14:22:47;;;;;;;4.35;2.42;;;;;;;;;;8266701;28;20053;-89
2023/08/11 14:26:52;;;;;;;5.35;2.20;;;;;;;;;;8266947;28;20109;-86
2023/08/11 14:30:55;;;;;;;4.03;2.25;;;;;;;;;;8267024;28;20129;-89
2023/08/11 14:34:58;;;;;;;6.72;2.17;;;;;;;;;;8266829;28;20125;-88
2023/08/11 14:39:02;;;;;;;7.32;2.38;;;;;;;;;;8266347;28;20054;-88
2023/08/11 14:43:06;;;;;;;2.55;1.92;;;;;;;;;;8264555;28;20133;-89
2023/08/11 14:47:12;;;;;;;3.50;2.00;;;;;;;;;;8266341;28;20066;-89
2023/08/11 14:51:15;;;;;;;3.50;1.98;;;;;;;;;;8266434;28;20034;-88
2023/08/11 14:55:18;;;;;;;5.95;1.98;;;;;;;;;;8243721;28;20471;-89
2023/08/11 14:59:23;;;;;;;5.30;2.40;;;;;;;;;;8263383;28;20134;-88
2023/08/11 15:03:26;;;;;;;5.60;2.40;;;;;;;;;;8241776;28;20046;-87
2023/08/11 15:07:29;;;;;;;5.07;2.63;;;;;;;;;;8255999;28;20058;-89
2023/08/11 15:11:32;;;;;;;2.50;1.85;;;;;;;;;;8263216;28;20442;-87
2023/08/11 15:15:37;;;;;;;6.82;2.45;;;;;;;;;;8273307;28;20055;-88
2023/08/11 15:19:40;;;;;;;5.78;2.10;;;;;;;;;;8278545;28;20077;-88
2023/08/11 15:23:43;;;;;;;3.50;2.00;;;;;;;;;;8271289;28;20050;-89
2023/08/11 15:27:46;;;;;;;3.88;2.03;;;;;;;;;;8300185;28;20042;-88
2023/08/11 15:31:50;;;;;;;5.68;2.20;;;;;;;;;;8281314;28;20038;-87
2023/08/11 15:35:53;;;;;;;5.93;2.45;;;;;;;;;;8296149;28;20042;-90
2023/08/11 15:40:01;;;;;;;6.18;2.25;;;;;;;;;;8281909;28;20043;-90
2023/08/11 15:44:10;;;;;;;3.65;2.15;;;;;;;;;;8274150;28;20049;-87
2023/08/11 15:48:15;;;;;;;3.53;2.28;;;;;;;;;;8257481;28;20134;-88
2023/08/11 15:52:19;;;;;;;4.15;2.78;;;;;;;;;;8255405;28;20062;-89
2023/08/11 15:56:22;;;;;;;4.45;2.30;;;;;;;;;;8255496;28;20388;-88
2023/08/11 16:00:26;;;;;;;3.72;2.10;;;;;;;;;;8254431;28;20058;-88
2023/08/11 16:04:30;;;;;;;3.85;2.13;;;;;;;;;;8274477;28;20062;-86
2023/08/11 16:08:34;;;;;;;5.35;2.42;;;;;;;;;;8273533;28;20038;-86
2023/08/11 16:12:37;;;;;;;2.88;1.95;;;;;;;;;;8249135;28;20522;-90
2023/08/11 16:16:40;;;;;;;5.07;2.10;;;;;;;;;;8270586;28;20121;-90
2023/08/11 16:20:47;;;;;;;3.65;2.05;;;;;;;;;;8253517;28;20162;-90
2023/08/11 16:24:51;;;;;;;3.10;2.15;;;;;;;;;;8250437;28;20145;-90
2023/08/11 16:28:54;;;;;;;4.20;2.13;;;;;;;;;;8243294;28;20062;-90
2023/08/11 16:32:57;;;;;;;6.55;2.70;;;;;;;;;;8270054;28;20049;-90
2023/08/11 16:37:04;;;;;;;5.63;2.40;;;;;;;;;;8243088;28;20560;-89
2023/08/11 16:41:08;;;;;;;3.70;2.10;;;;;;;;;;8251214;28;20065;-90
2023/08/11 16:45:32;;;;;;;5.05;2.38;;;;;;;;;;8267180;28;20046;-88
2023/08/11 16:49:35;;;;;;;5.38;2.72;;;;;;;;;;8267777;28;20073;-87
2023/08/11 16:53:40;;;;;;;4.07;2.50;;;;;;;;;;8268035;28;20054;-89
2023/08/11 16:57:43;;;;;;;5.90;2.47;;;;;;;;;;8270088;28;20117;-89
2023/08/11 17:01:46;;;;;;;4.60;2.30;;;;;;;;;;8246485;28;20137;-90
2023/08/11 17:05:49;;;;;;;4.15;2.67;;;;;;;;;;8258261;28;20120;-88
2023/08/11 17:09:54;;;;;;;4.10;2.53;;;;;;;;;;8278764;28;20137;-89
2023/08/11 17:13:57;;;;;;;5.82;2.90;;;;;;;;;;8301473;28;20044;-89
2023/08/11 17:18:00;;;;;;;6.00;3.40;;;;;;;;;;8301375;28;20125;-87
2023/08/11 17:22:03;;;;;;;5.25;3.05;;;;;;;;;;8293998;28;20049;-86
2023/08/11 17:26:08;;;;;;;7.80;3.22;;;;;;;;;;8293308;28;20050;-89
2023/08/11 17:30:12;;;;;;;6.75;3.50;;;;;;;;;;8278568;28;20053;-90
2023/08/11 17:34:16;;;;;;;6.85;3.28;;;;;;;;;;8255728;28;20049;-90
2023/08/11 17:38:19;;;;;;;9.43;4.28;;;;;;;;;;8275198;28;20050;-91
2023/08/11 17:42:28;;;;;;;7.32;3.88;;;;;;;;;;8261593;28;20053;-91
2023/08/11 17:46:31;;;;;;;7.40;3.65;;;;;;;;;;8277417;28;20045;-90
2023/08/11 17:50:35;;;;;;;8.55;3.72;;;;;;;;;;8271734;28;20053;-85
2023/08/11 17:54:38;;;;;;;8.00;3.83;;;;;;;;;;8291071;28;20052;-86
2023/08/11 17:58:43;;;;;;;12.48;7.05;;;;;;;;;;8280828;28;20050;-91
2023/08/11 18:02:47;;;;;;;13.35;6.78;;;;;;;;;;8280356;28;20053;-92
2023/08/11 18:07:27;;;;;;;14.85;8.07;;;;;;;;;;8276772;28;20145;-88
2023/08/11 18:11:46;;;;;;;20.02;12.43;;;;;;;;;;8253810;28;20116;-93
2023/08/11 18:15:53;;;;;;;18.38;11.88;;;;;;;;;;8293127;28;20074;-91
2023/08/11 18:20:00;;;;;;;17.30;10.23;;;;;;;;;;8285397;28;20080;-92
2023/08/11 18:24:04;;;;;;;26.50;11.68;;;;;;;;;;8299063;28;20045;-89
2023/08/11 18:28:07;;;;;;;28.25;11.38;;;;;;;;;;8296196;28;20050;-93
2023/08/11 18:32:16;;;;;;;17.00;8.55;;;;;;;;;;8279178;28;20478;-92
2023/08/11 18:36:19;;;;;;;30.48;12.05;;;;;;;;;;8273493;28;20125;-91
2023/08/11 18:40:23;;;;;;;34.72;13.95;;;;;;;;;;8281578;28;20042;-87
2023/08/11 18:44:29;;;;;;;18.88;8.73;;;;;;;;;;8281242;28;20173;-90
2023/08/11 18:48:36;;;;;;;14.15;6.47;;;;;;;;;;8265261;28;20133;-92
2023/08/11 18:52:41;;;;;;;28.25;11.60;;;;;;;;;;8265515;28;20486;-90
2023/08/11 18:56:45;;;;;;;35.53;16.13;;;;;;;;;;8280555;28;20141;-88
2023/08/11 19:00:49;;;;;;;16.30;9.13;;;;;;;;;;8297267;28;20073;-86
2023/08/11 19:04:57;;;;;;;13.65;7.65;;;;;;;;;;8269358;28;20709;-85
2023/08/11 19:09:07;;;;;;;9.20;5.10;;;;;;;;;;8250453;28;20054;-91
2023/08/11 19:13:11;;;;;;;21.40;12.27;;;;;;;;;;8239261;28;20471;-89
2023/08/11 19:17:16;;;;;;;15.23;5.70;;;;;;;;;;8247883;28;20077;-88
2023/08/11 19:21:21;;;;;;;14.35;7.63;;;;;;;;;;8241589;28;20058;-87
2023/08/11 19:25:29;;;;;;;25.40;11.88;;;;;;;;;;8239418;28;20055;-86
2023/08/11 19:29:32;;;;;;;22.05;13.95;;;;;;;;;;8262495;28;20046;-86
2023/08/11 19:33:39;;;;;;;76.53;24.27;;;;;;;;;;8264797;28;20055;-87
2023/08/11 19:37:45;;;;;;;31.27;13.40;;;;;;;;;;8249792;28;20047;-87
2023/08/11 19:41:49;;;;;;;20.88;10.75;;;;;;;;;;8249849;28;20062;-88
2023/08/11 19:45:53;;;;;;;13.40;7.32;;;;;;;;;;8243465;28;20046;-86
2023/08/11 19:49:57;;;;;;;8.15;4.88;;;;;;;;;;8267306;28;20053;-86
2023/08/11 19:54:05;;;;;;;8.80;5.80;;;;;;;;;;8268680;23;20065;-88
2023/08/11 19:58:08;;;;;;;11.20;5.70;;;;;;;;;;8265803;28;20574;-89
2023/08/11 20:02:12;;;;;;;7.90;5.00;;;;;;;;;;8235361;28;20530;-89
2023/08/11 20:06:29;;;;;;;8.10;5.40;;;;;;;;;;8259088;28;20042;-88
2023/08/11 20:10:38;;;;;;;9.73;6.47;;;;;;;;;;8109110;29;20103;-89
2023/08/11 20:14:41;;;;;;;9.60;7.03;;;;;;;;;;8127257;29;20680;-88
2023/08/11 20:18:47;;;;;;;12.50;7.15;;;;;;;;;;8121358;29;20055;-88
2023/08/11 20:22:53;;;;;;;9.82;6.90;;;;;;;;;;8132380;29;20063;-89
2023/08/11 20:26:59;;;;;;;19.88;9.40;;;;;;;;;;8112206;29;20115;-88
2023/08/11 20:31:05;;;;;;;49.70;16.33;;;;;;;;;;8103938;29;20792;-88
2023/08/11 20:35:10;;;;;;;10.48;6.28;;;;;;;;;;8113521;29;20076;-86
2023/08/11 20:39:15;;;;;;;11.35;6.68;;;;;;;;;;8135264;29;20064;-86
2023/08/11 20:43:20;;;;;;;8.88;6.03;;;;;;;;;;8137538;29;20479;-88
2023/08/11 20:47:23;;;;;;;10.98;5.75;;;;;;;;;;8210279;28;20039;-88
2023/08/11 20:51:26;;;;;;;9.02;5.80;;;;;;;;;;8258939;28;20162;-87
2023/08/11 20:55:29;;;;;;;10.88;6.60;;;;;;;;;;8273038;28;20069;-87
2023/08/11 20:59:34;;;;;;;8.20;6.25;;;;;;;;;;8269941;28;20077;-88
2023/08/11 21:03:38;;;;;;;8.05;5.80;;;;;;;;;;8252731;28;20479;-88
2023/08/11 21:07:40;;;;;;;13.63;7.45;;;;;;;;;;8268929;28;20048;-87
2023/08/11 21:11:43;;;;;;;13.43;6.10;;;;;;;;;;8262219;28;20057;-88
2023/08/11 21:15:48;;;;;;;12.20;7.30;;;;;;;;;;8241077;28;20085;-88
2023/08/11 21:19:52;;;;;;;9.20;6.97;;;;;;;;;;8249097;28;20058;-87
2023/08/11 21:23:55;;;;;;;12.68;6.63;;;;;;;;;;8247722;28;20050;-85
2023/08/11 21:27:58;;;;;;;12.15;7.35;;;;;;;;;;8270768;28;20105;-85
2023/08/11 21:32:03;;;;;;;11.32;7.40;;;;;;;;;;8271209;28;20089;-89
2023/08/11 21:36:06;;;;;;;9.60;7.13;;;;;;;;;;8269892;28;20133;-87
2023/08/11 21:40:10;;;;;;;12.13;7.00;;;;;;;;;;8270175;28;20406;-88
2023/08/11 21:44:15;;;;;;;10.52;7.32;;;;;;;;;;8257748;28;20061;-88
2023/08/11 21:48:20;;;;;;;10.75;7.40;;;;;;;;;;8266205;28;20039;-88
2023/08/11 21:52:23;;;;;;;12.50;8.52;;;;;;;;;;8266461;28;20050;-87
2023/08/11 21:56:26;;;;;;;15.45;8.27;;;;;;;;;;8259217;28;20126;-87
2023/08/11 22:00:29;;;;;;;14.75;8.75;;;;;;;;;;8276299;23;20054;-88
2023/08/11 22:04:37;;;;;;;10.68;8.40;;;;;;;;;;8217872;28;20054;-85
2023/08/11 22:08:40;;;;;;;11.43;8.30;;;;;;;;;;8216742;28;20078;-87
2023/08/11 22:12:44;;;;;;;12.18;8.30;;;;;;;;;;8238389;28;20427;-88
2023/08/11 22:16:47;;;;;;;14.65;9.05;;;;;;;;;;8229117;28;20145;-88
2023/08/11 22:20:54;;;;;;;18.13;8.18;;;;;;;;;;8217232;28;20130;-88
2023/08/11 22:25:00;;;;;;;14.75;7.85;;;;;;;;;;8234626;28;20070;-87
2023/08/11 22:29:04;;;;;;;17.77;8.45;;;;;;;;;;8234611;28;20497;-85
2023/08/11 22:33:07;;;;;;;14.15;8.45;;;;;;;;;;8217230;28;20069;-88
2023/08/11 22:37:11;;;;;;;13.98;9.18;;;;;;;;;;8233799;28;20050;-87
2023/08/11 22:41:15;;;;;;;16.58;8.43;;;;;;;;;;8233270;28;20050;-89
2023/08/11 22:45:21;;;;;;;13.77;8.32;;;;;;;;;;8205442;28;20050;-86
2023/08/11 22:49:24;;;;;;;14.00;7.53;;;;;;;;;;8216447;28;20098;-88
2023/08/11 22:53:33;;;;;;;11.88;7.38;;;;;;;;;;8217417;28;20050;-87
2023/08/11 22:57:36;;;;;;;11.73;8.05;;;;;;;;;;8230735;28;20527;-87
2023/08/11 23:01:39;;;;;;;13.57;8.82;;;;;;;;;;8218251;28;20515;-88
2023/08/11 23:05:43;;;;;;;13.27;8.18;;;;;;;;;;8220005;28;20142;-85
2023/08/11 23:09:48;;;;;;;13.90;8.10;;;;;;;;;;8188793;28;20083;-87
2023/08/11 23:13:51;;;;;;;13.90;8.77;;;;;;;;;;8200016;28;20405;-86
2023/08/11 23:17:55;;;;;;;15.50;8.38;;;;;;;;;;8188236;28;20054;-87
2023/08/11 23:21:58;;;;;;;17.17;8.95;;;;;;;;;;8187207;28;20484;-87
2023/08/11 23:26:04;;;;;;;12.38;8.80;;;;;;;;;;8186714;28;20096;-87
2023/08/11 23:30:09;;;;;;;9.98;7.25;;;;;;;;;;8188131;28;20120;-88
2023/08/11 23:34:12;;;;;;;9.52;6.90;;;;;;;;;;8202590;28;20133;-88
2023/08/11 23:38:15;;;;;;;11.73;6.72;;;;;;;;;;8185887;28;20500;-87
2023/08/11 23:42:23;;;;;;;11.40;7.78;;;;;;;;;;8196554;28;20055;-88
2023/08/11 23:46:26;;;;;;;10.82;7.88;;;;;;;;;;8184063;28;20210;-86
2023/08/11 23:50:29;;;;;;;17.52;7.70;;;;;;;;;;8209284;28;20055;-88
2023/08/11 23:54:32;;;;;;;12.48;7.72;;;;;;;;;;8209294;28;20079;-87
2023/08/11 23:58:40;;;;;;;12.38;8.48;;;;;;;;;;8179009;28;20139;-88
